createdAt,value
2022-07-28T00:00:46.979Z,20.00
2022-07-28T00:05:50.558Z,20.00
2022-07-28T00:10:55.582Z,20.00
2022-07-28T00:15:59.303Z,19.90
2022-07-28T00:21:03.349Z,19.90
2022-07-28T00:26:09.306Z,19.80
2022-07-28T00:31:13.002Z,19.80
2022-07-28T00:36:17.218Z,19.70
2022-07-28T00:41:23.108Z,19.60
2022-07-28T00:46:26.874Z,19.60
2022-07-28T00:51:30.944Z,19.60
2022-07-28T00:56:36.456Z,19.50
2022-07-28T01:01:40.219Z,19.40
2022-07-28T01:07:17.892Z,19.40
2022-07-28T01:12:35.646Z,19.50
2022-07-28T01:17:45.427Z,19.50
2022-07-28T01:23:05.538Z,19.50
2022-07-28T01:28:25.839Z,19.50
2022-07-28T01:33:35.926Z,19.50
2022-07-28T01:38:40.337Z,19.50
2022-07-28T01:43:48.086Z,19.40
2022-07-28T01:48:54.913Z,19.40
2022-07-28T01:54:01.482Z,19.30
2022-07-28T01:59:09.805Z,19.20
2022-07-28T02:04:16.740Z,19.20
2022-07-28T02:09:23.235Z,19.10
2022-07-28T02:14:29.202Z,19.10
2022-07-28T02:19:35.323Z,19.00
2022-07-28T02:24:39.493Z,19.00
2022-07-28T02:29:51.091Z,18.90
2022-07-28T02:34:59.919Z,18.90
2022-07-28T02:40:05.568Z,19.00
2022-07-28T02:45:13.071Z,18.90
2022-07-28T02:50:22.868Z,19.00
2022-07-28T02:55:27.640Z,19.00
2022-07-28T03:00:31.780Z,19.00
2022-07-28T03:05:37.787Z,19.10
2022-07-28T03:10:41.885Z,19.20
2022-07-28T03:15:45.423Z,19.20
2022-07-28T03:20:50.361Z,19.30
2022-07-28T03:25:58.525Z,19.30
2022-07-28T03:31:06.865Z,19.30
2022-07-28T03:36:17.053Z,19.30
2022-07-28T03:41:22.727Z,19.10
2022-07-28T03:46:27.748Z,19.10
2022-07-28T03:51:32.772Z,19.10
2022-07-28T03:56:36.292Z,19.10
2022-07-28T04:01:39.990Z,19.10
2022-07-28T04:06:45.017Z,19.20
2022-07-28T04:11:48.549Z,19.10
2022-07-28T04:16:52.146Z,19.10
2022-07-28T04:21:57.197Z,19.10
2022-07-28T04:27:00.830Z,19.00
2022-07-28T04:32:04.578Z,19.00
2022-07-28T04:37:09.986Z,18.90
2022-07-28T04:42:13.577Z,18.90
2022-07-28T04:47:17.609Z,18.80
2022-07-28T04:52:23.093Z,18.70
2022-07-28T04:57:28.305Z,18.70
2022-07-28T05:02:31.889Z,18.70
2022-07-28T05:07:37.491Z,18.60
2022-07-28T05:12:41.091Z,18.60
2022-07-28T05:17:44.685Z,18.60
2022-07-28T05:22:53.603Z,18.70
2022-07-28T05:27:57.217Z,18.70
2022-07-28T05:33:01.912Z,18.70
2022-07-28T05:38:10.837Z,18.70
2022-07-28T05:43:15.070Z,18.60
2022-07-28T05:48:19.561Z,18.70
2022-07-28T05:53:24.832Z,18.70
2022-07-28T05:58:28.402Z,18.80
2022-07-28T06:03:38.444Z,18.80
2022-07-28T06:08:48.289Z,18.80
2022-07-28T06:13:53.048Z,18.90
2022-07-28T06:18:56.603Z,19.10
2022-07-28T06:24:01.758Z,19.20
2022-07-28T06:29:05.452Z,19.40
2022-07-28T06:34:08.985Z,19.60
2022-07-28T06:39:14.073Z,19.80
2022-07-28T06:44:17.912Z,19.90
2022-07-28T06:49:21.805Z,20.00
2022-07-28T06:54:26.848Z,20.10
2022-07-28T06:59:30.428Z,20.20
2022-07-28T07:04:34.944Z,20.30
2022-07-28T07:09:40.866Z,20.50
2022-07-28T07:14:44.605Z,20.60
2022-07-28T07:19:48.394Z,20.80
2022-07-28T07:24:56.838Z,21.00
2022-07-28T07:30:01.245Z,21.20
2022-07-28T07:35:05.403Z,21.20
2022-07-28T07:40:11.205Z,21.30
2022-07-28T07:45:15.027Z,21.40
2022-07-28T07:50:18.569Z,21.50
2022-07-28T07:55:23.569Z,21.80
2022-07-28T08:00:29.064Z,22.00
2022-07-28T08:05:35.077Z,22.20
2022-07-28T08:10:41.467Z,22.50
2022-07-28T08:15:45.087Z,22.60
2022-07-28T08:20:48.696Z,22.80
2022-07-28T08:25:53.675Z,23.10
2022-07-28T08:30:57.310Z,23.30
2022-07-28T08:36:01.148Z,23.70
2022-07-28T08:41:08.057Z,23.90
2022-07-28T08:46:12.500Z,24.30
2022-07-28T08:51:16.769Z,24.70
2022-07-28T08:56:21.820Z,25.10
2022-07-28T09:01:25.927Z,25.50
2022-07-28T09:06:43.570Z,25.80
2022-07-28T09:11:48.645Z,26.20
2022-07-28T09:16:52.217Z,26.90
2022-07-28T09:21:57.271Z,27.50
2022-07-28T09:27:07.835Z,28.10
2022-07-28T09:32:13.826Z,28.30
2022-07-28T09:37:26.799Z,28.60
2022-07-28T09:42:47.425Z,28.70
2022-07-28T09:47:51.315Z,28.90
2022-07-28T09:52:54.879Z,29.50
2022-07-28T09:57:59.911Z,30.50
2022-07-28T10:03:05.740Z,31.00
2022-07-28T10:08:09.156Z,31.30
2022-07-28T10:13:14.354Z,31.70
2022-07-28T10:18:18.126Z,31.90
2022-07-28T10:23:22.805Z,32.00
2022-07-28T10:28:29.363Z,31.70
2022-07-28T10:33:34.429Z,32.00
2022-07-28T10:38:38.501Z,31.70
2022-07-28T10:44:10.820Z,31.70
2022-07-28T10:49:09.883Z,32.00
2022-07-28T10:54:25.205Z,32.60
2022-07-28T11:00:12.295Z,33.20
2022-07-28T11:05:31.477Z,33.60
2022-07-28T11:10:46.633Z,33.90
2022-07-28T11:15:54.114Z,33.90
2022-07-28T11:21:10.961Z,33.80
2022-07-28T11:26:46.051Z,33.90
2022-07-28T11:32:05.169Z,33.70
2022-07-28T11:37:15.313Z,33.40
2022-07-28T11:42:26.131Z,33.50
2022-07-28T11:47:31.789Z,34.40
2022-07-28T11:52:35.523Z,34.70
2022-07-28T11:57:44.142Z,35.20
2022-07-28T12:02:49.647Z,35.50
2022-07-28T12:07:53.685Z,35.40
2022-07-28T12:12:58.492Z,35.50
2022-07-28T12:18:04.018Z,35.70
2022-07-28T12:23:10.338Z,36.40
2022-07-28T12:28:18.259Z,36.70
2022-07-28T12:33:29.757Z,36.60
2022-07-28T12:38:34.297Z,36.00
2022-07-28T12:43:38.041Z,35.60
2022-07-28T12:48:43.102Z,35.40
2022-07-28T12:53:52.267Z,35.80
2022-07-28T12:59:07.672Z,35.60
2022-07-28T13:04:13.015Z,35.40
2022-07-28T13:09:24.023Z,35.90
2022-07-28T13:14:40.390Z,36.40
2022-07-28T13:19:45.757Z,36.30
2022-07-28T13:24:49.374Z,35.40
2022-07-28T13:29:52.991Z,34.40
2022-07-28T13:34:57.976Z,33.70
2022-07-28T13:40:01.951Z,33.30
2022-07-28T13:45:05.618Z,33.30
2022-07-28T13:50:11.314Z,33.20
2022-07-28T13:55:16.082Z,32.90
2022-07-28T14:00:24.383Z,32.70
2022-07-28T14:05:32.163Z,32.50
2022-07-28T14:10:37.254Z,32.30
2022-07-28T14:15:41.590Z,32.20
2022-07-28T14:20:46.684Z,32.00
2022-07-28T14:25:51.007Z,32.10
2022-07-28T14:30:54.696Z,32.10
2022-07-28T14:36:00.017Z,32.00
2022-07-28T14:41:03.639Z,31.90
2022-07-28T14:46:16.399Z,32.00
2022-07-28T14:51:25.930Z,32.20
2022-07-28T14:56:29.553Z,32.00
2022-07-28T15:01:36.029Z,31.80
2022-07-28T15:06:41.768Z,31.60
2022-07-28T15:11:47.333Z,31.30
2022-07-28T15:16:51.369Z,30.90
2022-07-28T15:21:56.140Z,30.50
2022-07-28T15:27:01.099Z,30.20
2022-07-28T15:32:07.481Z,30.00
2022-07-28T15:37:16.058Z,29.70
2022-07-28T15:42:19.704Z,29.40
2022-07-28T15:47:24.049Z,29.20
2022-07-28T15:52:29.305Z,29.10
2022-07-28T15:57:38.116Z,29.10
2022-07-28T16:02:41.977Z,29.10
2022-07-28T16:07:47.004Z,29.10
2022-07-28T16:12:51.203Z,29.00
2022-07-28T16:17:54.878Z,28.90
2022-07-28T16:22:59.933Z,28.90
2022-07-28T16:28:04.956Z,29.00
2022-07-28T16:33:08.736Z,29.00
2022-07-28T16:38:14.046Z,28.80
2022-07-28T16:43:17.666Z,28.60
2022-07-28T16:48:21.573Z,28.50
2022-07-28T16:53:26.637Z,28.40
2022-07-28T16:58:30.264Z,28.30
2022-07-28T17:03:34.748Z,28.20
2022-07-28T17:08:39.473Z,28.10
2022-07-28T17:13:45.346Z,28.00
2022-07-28T17:18:49.190Z,27.90
2022-07-28T17:23:54.158Z,27.80
2022-07-28T17:28:58.377Z,27.80
2022-07-28T17:34:02.325Z,27.60
2022-07-28T17:39:08.038Z,27.50
2022-07-28T17:44:11.798Z,27.50
2022-07-28T17:49:15.734Z,27.50
2022-07-28T17:54:24.935Z,27.40
2022-07-28T17:59:35.915Z,27.40
2022-07-28T18:04:53.136Z,27.30
2022-07-28T18:09:58.084Z,27.30
2022-07-28T18:15:04.061Z,27.20
2022-07-28T18:20:08.817Z,27.10
2022-07-28T18:25:13.713Z,27.10
2022-07-28T18:30:18.069Z,27.00
2022-07-28T18:35:22.016Z,26.90
2022-07-28T18:40:27.010Z,26.80
2022-07-28T18:45:30.620Z,26.70
2022-07-28T18:50:34.179Z,26.60
2022-07-28T18:55:45.601Z,26.50
2022-07-28T19:00:49.361Z,26.40
2022-07-28T19:05:54.368Z,26.30
2022-07-28T19:10:59.326Z,26.10
2022-07-28T19:16:03.156Z,26.00
2022-07-28T19:21:08.070Z,26.00
2022-07-28T19:26:12.985Z,25.90
2022-07-28T19:31:16.793Z,25.80
2022-07-28T19:36:22.307Z,25.70
2022-07-28T19:41:28.290Z,25.40
2022-07-28T19:46:31.924Z,25.30
2022-07-28T19:51:35.549Z,25.20
2022-07-28T19:56:41.927Z,25.10
2022-07-28T20:01:46.843Z,25.00
2022-07-28T20:06:55.717Z,24.90
2022-07-28T20:12:00.850Z,24.80
2022-07-28T20:17:04.603Z,24.70
2022-07-28T20:22:08.233Z,24.60
2022-07-28T20:27:13.352Z,24.50
2022-07-28T20:32:16.926Z,24.40
2022-07-28T20:37:35.956Z,24.20
2022-07-28T20:42:42.115Z,24.10
2022-07-28T20:47:45.785Z,24.10
2022-07-28T20:52:49.345Z,24.00
2022-07-28T20:57:55.923Z,23.90
2022-07-28T21:03:00.578Z,23.80
2022-07-28T21:08:09.271Z,23.80
2022-07-28T21:13:21.158Z,23.70
2022-07-28T21:18:25.060Z,23.60
2022-07-28T21:23:28.636Z,23.50
2022-07-28T21:28:51.439Z,23.40
2022-07-28T21:33:55.535Z,23.40
2022-07-28T21:38:59.165Z,23.30
2022-07-28T21:44:04.353Z,23.30
2022-07-28T21:49:08.013Z,23.20
2022-07-28T21:54:11.885Z,23.10
2022-07-28T21:59:16.881Z,23.00
2022-07-28T22:04:21.170Z,22.90
2022-07-28T22:09:25.084Z,22.80
2022-07-28T22:14:32.311Z,22.70
2022-07-28T22:19:35.997Z,22.60
2022-07-28T22:24:39.608Z,22.50
2022-07-28T22:29:51.554Z,22.40
2022-07-28T22:34:55.945Z,22.30
2022-07-28T22:39:59.525Z,22.20
2022-07-28T22:45:05.122Z,22.10
2022-07-28T22:50:10.517Z,22.10
2022-07-28T23:00:37.194Z,21.90
2022-07-28T23:05:40.995Z,21.80
2022-07-28T23:10:44.714Z,21.70
2022-07-28T23:15:50.474Z,21.70
2022-07-28T23:20:54.183Z,21.70
2022-07-28T23:25:57.871Z,21.60
2022-07-28T23:31:03.076Z,21.60
2022-07-28T23:36:09.660Z,21.60
2022-07-28T23:41:20.778Z,21.50
2022-07-28T23:46:26.046Z,21.40
2022-07-28T23:51:32.077Z,21.30
2022-07-28T23:56:52.468Z,21.30
